sensor_id;sensor_type;location;lat;lon;timestamp;pressure;altitude;pressure_sealevel;temperature
69590;BMP180;56792;50.644;17.984;2023-01-08T00:00:16;99466.20;;;1.00
69590;BMP180;56792;50.644;17.984;2023-01-08T00:02:49;99465.80;;;1.20
69590;BMP180;56792;50.644;17.984;2023-01-08T00:05:21;99460.80;;;1.20
69590;BMP180;56792;50.644;17.984;2023-01-08T00:07:53;99457.40;;;1.20
69590;BMP180;56792;50.644;17.984;2023-01-08T00:10:25;99457.80;;;1.30
69590;BMP180;56792;50.644;17.984;2023-01-08T00:12:59;99454.60;;;1.30
69590;BMP180;56792;50.644;17.984;2023-01-08T00:15:31;99451.20;;;1.40
69590;BMP180;56792;50.644;17.984;2023-01-08T00:18:04;99449.40;;;1.50
69590;BMP180;56792;50.644;17.984;2023-01-08T00:20:36;99448.60;;;1.58
69590;BMP180;56792;50.644;17.984;2023-01-08T00:23:13;99443.60;;;1.60
69590;BMP180;56792;50.644;17.984;2023-01-08T00:25:46;99437.80;;;1.70
69590;BMP180;56792;50.644;17.984;2023-01-08T00:28:18;99429.40;;;1.70
69590;BMP180;56792;50.644;17.984;2023-01-08T00:30:51;99425.60;;;1.76
69590;BMP180;56792;50.644;17.984;2023-01-08T00:33:23;99419.60;;;1.80
69590;BMP180;56792;50.644;17.984;2023-01-08T00:35:55;99420.80;;;1.90
69590;BMP180;56792;50.644;17.984;2023-01-08T00:38:30;99418.80;;;2.10
69590;BMP180;56792;50.644;17.984;2023-01-08T00:41:02;99417.60;;;2.20
69590;BMP180;56792;50.644;17.984;2023-01-08T00:43:34;99414.00;;;2.30
69590;BMP180;56792;50.644;17.984;2023-01-08T00:46:07;99417.60;;;2.40
69590;BMP180;56792;50.644;17.984;2023-01-08T00:48:40;99421.40;;;2.50
69590;BMP180;56792;50.644;17.984;2023-01-08T00:51:12;99418.20;;;2.60
69590;BMP180;56792;50.644;17.984;2023-01-08T00:53:44;99408.20;;;2.70
69590;BMP180;56792;50.644;17.984;2023-01-08T00:56:16;99414.80;;;2.70
69590;BMP180;56792;50.644;17.984;2023-01-08T00:58:48;99414.60;;;2.80
69590;BMP180;56792;50.644;17.984;2023-01-08T01:01:20;99406.80;;;2.82
69590;BMP180;56792;50.644;17.984;2023-01-08T01:03:53;99399.40;;;2.90
69590;BMP180;56792;50.644;17.984;2023-01-08T01:06:25;99391.80;;;3.00
69590;BMP180;56792;50.644;17.984;2023-01-08T01:08:57;99391.00;;;3.06
69590;BMP180;56792;50.644;17.984;2023-01-08T01:11:30;99391.60;;;3.10
69590;BMP180;56792;50.644;17.984;2023-01-08T01:14:02;99397.80;;;3.20
69590;BMP180;56792;50.644;17.984;2023-01-08T01:16:34;99398.60;;;3.30
69590;BMP180;56792;50.644;17.984;2023-01-08T01:19:06;99393.80;;;3.40
69590;BMP180;56792;50.644;17.984;2023-01-08T01:21:38;99404.40;;;3.50
69590;BMP180;56792;50.644;17.984;2023-01-08T01:24:13;99400.20;;;3.60
69590;BMP180;56792;50.644;17.984;2023-01-08T01:26:45;99399.40;;;3.70
69590;BMP180;56792;50.644;17.984;2023-01-08T01:29:17;99389.60;;;3.70
69590;BMP180;56792;50.644;17.984;2023-01-08T01:31:49;99394.60;;;3.80
69590;BMP180;56792;50.644;17.984;2023-01-08T01:34:22;99393.80;;;3.88
69590;BMP180;56792;50.644;17.984;2023-01-08T01:36:54;99400.00;;;3.90
69590;BMP180;56792;50.644;17.984;2023-01-08T01:39:26;99398.00;;;4.00
69590;BMP180;56792;50.644;17.984;2023-01-08T01:41:58;99395.20;;;4.00
69590;BMP180;56792;50.644;17.984;2023-01-08T01:44:43;99391.60;;;4.10
69590;BMP180;56792;50.644;17.984;2023-01-08T01:47:25;99387.80;;;4.20
69590;BMP180;56792;50.644;17.984;2023-01-08T01:50:06;99390.80;;;4.20
69590;BMP180;56792;50.644;17.984;2023-01-08T01:52:43;99391.80;;;4.30
69590;BMP180;56792;50.644;17.984;2023-01-08T01:55:18;99387.40;;;4.30
69590;BMP180;56792;50.644;17.984;2023-01-08T01:57:57;99395.00;;;4.40
69590;BMP180;56792;50.644;17.984;2023-01-08T02:00:33;99398.80;;;4.40
69590;BMP180;56792;50.644;17.984;2023-01-08T02:03:06;99401.40;;;4.40
69590;BMP180;56792;50.644;17.984;2023-01-08T02:05:48;99398.60;;;4.40
69590;BMP180;56792;50.644;17.984;2023-01-08T02:08:34;99387.60;;;4.40
69590;BMP180;56792;50.644;17.984;2023-01-08T02:11:19;99394.00;;;4.42
69590;BMP180;56792;50.644;17.984;2023-01-08T02:14:00;99392.40;;;4.50
69590;BMP180;56792;50.644;17.984;2023-01-08T02:16:43;99388.60;;;4.50
69590;BMP180;56792;50.644;17.984;2023-01-08T02:19:36;99386.00;;;4.50
69590;BMP180;56792;50.644;17.984;2023-01-08T02:22:25;99380.80;;;4.50
69590;BMP180;56792;50.644;17.984;2023-01-08T02:25:08;99374.80;;;4.52
69590;BMP180;56792;50.644;17.984;2023-01-08T02:27:44;99372.80;;;4.50
69590;BMP180;56792;50.644;17.984;2023-01-08T02:30:19;99364.40;;;4.60
69590;BMP180;56792;50.644;17.984;2023-01-08T02:32:51;99361.00;;;4.60
69590;BMP180;56792;50.644;17.984;2023-01-08T02:35:29;99363.40;;;4.60
69590;BMP180;56792;50.644;17.984;2023-01-08T02:38:04;99367.20;;;4.60
69590;BMP180;56792;50.644;17.984;2023-01-08T02:40:51;99364.80;;;4.64
69590;BMP180;56792;50.644;17.984;2023-01-08T02:43:35;99368.00;;;4.70
69590;BMP180;56792;50.644;17.984;2023-01-08T02:46:12;99364.20;;;4.64
69590;BMP180;56792;50.644;17.984;2023-01-08T02:48:50;99364.40;;;4.70
69590;BMP180;56792;50.644;17.984;2023-01-08T02:51:30;99365.60;;;4.62
69590;BMP180;56792;50.644;17.984;2023-01-08T02:54:10;99364.20;;;4.64
69590;BMP180;56792;50.644;17.984;2023-01-08T02:56:48;99369.20;;;4.70
69590;BMP180;56792;50.644;17.984;2023-01-08T02:59:22;99368.60;;;4.70
69590;BMP180;56792;50.644;17.984;2023-01-08T03:01:56;99363.40;;;4.70
69590;BMP180;56792;50.644;17.984;2023-01-08T03:04:29;99362.40;;;4.70
69590;BMP180;56792;50.644;17.984;2023-01-08T03:07:02;99367.00;;;4.80
69590;BMP180;56792;50.644;17.984;2023-01-08T03:09:35;99364.20;;;4.72
69590;BMP180;56792;50.644;17.984;2023-01-08T03:12:14;99369.80;;;4.70
69590;BMP180;56792;50.644;17.984;2023-01-08T03:14:53;99375.80;;;4.70
69590;BMP180;56792;50.644;17.984;2023-01-08T03:17:31;99365.60;;;4.70
69590;BMP180;56792;50.644;17.984;2023-01-08T03:20:10;99367.00;;;4.70
69590;BMP180;56792;50.644;17.984;2023-01-08T03:22:48;99365.60;;;4.70
69590;BMP180;56792;50.644;17.984;2023-01-08T03:25:24;99372.80;;;4.70
69590;BMP180;56792;50.644;17.984;2023-01-08T03:28:02;99369.20;;;4.70
69590;BMP180;56792;50.644;17.984;2023-01-08T03:30:39;99368.20;;;4.72
69590;BMP180;56792;50.644;17.984;2023-01-08T03:33:13;99365.80;;;4.70
69590;BMP180;56792;50.644;17.984;2023-01-08T03:35:50;99365.00;;;4.70
69590;BMP180;56792;50.644;17.984;2023-01-08T03:38:27;99356.40;;;4.72
69590;BMP180;56792;50.644;17.984;2023-01-08T03:41:07;99353.80;;;4.80
69590;BMP180;56792;50.644;17.984;2023-01-08T03:43:40;99351.00;;;4.80
69590;BMP180;56792;50.644;17.984;2023-01-08T03:46:25;99340.00;;;4.80
69590;BMP180;56792;50.644;17.984;2023-01-08T03:49:00;99334.00;;;4.80
69590;BMP180;56792;50.644;17.984;2023-01-08T03:51:42;99337.60;;;4.80
69590;BMP180;56792;50.644;17.984;2023-01-08T03:54:17;99349.80;;;4.80
69590;BMP180;56792;50.644;17.984;2023-01-08T03:56:50;99349.00;;;4.80
69590;BMP180;56792;50.644;17.984;2023-01-08T03:59:22;99345.40;;;4.80
69590;BMP180;56792;50.644;17.984;2023-01-08T04:01:54;99333.40;;;4.80
69590;BMP180;56792;50.644;17.984;2023-01-08T04:04:27;99327.40;;;4.80
69590;BMP180;56792;50.644;17.984;2023-01-08T04:06:59;99335.40;;;4.80
69590;BMP180;56792;50.644;17.984;2023-01-08T04:09:31;99335.20;;;4.80
69590;BMP180;56792;50.644;17.984;2023-01-08T04:12:03;99339.60;;;4.80
69590;BMP180;56792;50.644;17.984;2023-01-08T04:14:35;99339.20;;;4.88
69590;BMP180;56792;50.644;17.984;2023-01-08T04:17:08;99345.20;;;4.86
69590;BMP180;56792;50.644;17.984;2023-01-08T04:19:41;99353.00;;;4.90
69590;BMP180;56792;50.644;17.984;2023-01-08T04:22:13;99341.80;;;4.90
69590;BMP180;56792;50.644;17.984;2023-01-08T04:24:46;99341.20;;;4.90
69590;BMP180;56792;50.644;17.984;2023-01-08T04:27:18;99341.60;;;4.90
69590;BMP180;56792;50.644;17.984;2023-01-08T04:29:50;99341.20;;;4.90
69590;BMP180;56792;50.644;17.984;2023-01-08T04:32:22;99335.00;;;4.90
69590;BMP180;56792;50.644;17.984;2023-01-08T04:34:54;99332.40;;;4.90
69590;BMP180;56792;50.644;17.984;2023-01-08T04:37:26;99332.60;;;4.90
69590;BMP180;56792;50.644;17.984;2023-01-08T04:39:58;99329.80;;;4.90
69590;BMP180;56792;50.644;17.984;2023-01-08T04:42:30;99328.20;;;4.90
69590;BMP180;56792;50.644;17.984;2023-01-08T04:45:02;99328.00;;;4.90
69590;BMP180;56792;50.644;17.984;2023-01-08T04:47:35;99325.20;;;4.90
69590;BMP180;56792;50.644;17.984;2023-01-08T04:50:08;99324.20;;;4.90
69590;BMP180;56792;50.644;17.984;2023-01-08T04:52:41;99322.20;;;4.90
69590;BMP180;56792;50.644;17.984;2023-01-08T04:55:13;99310.80;;;4.90
69590;BMP180;56792;50.644;17.984;2023-01-08T04:57:45;99315.00;;;4.90
69590;BMP180;56792;50.644;17.984;2023-01-08T05:00:20;99316.40;;;4.90
69590;BMP180;56792;50.644;17.984;2023-01-08T05:02:52;99311.00;;;4.90
69590;BMP180;56792;50.644;17.984;2023-01-08T05:05:24;99308.60;;;4.90
69590;BMP180;56792;50.644;17.984;2023-01-08T05:07:56;99308.40;;;4.90
69590;BMP180;56792;50.644;17.984;2023-01-08T05:10:28;99301.00;;;4.90
69590;BMP180;56792;50.644;17.984;2023-01-08T05:13:02;99297.20;;;4.90
69590;BMP180;56792;50.644;17.984;2023-01-08T05:15:34;99291.20;;;4.90
69590;BMP180;56792;50.644;17.984;2023-01-08T05:18:08;99285.40;;;4.92
69590;BMP180;56792;50.644;17.984;2023-01-08T05:20:40;99286.00;;;5.00
69590;BMP180;56792;50.644;17.984;2023-01-08T05:23:12;99286.20;;;5.00
69590;BMP180;56792;50.644;17.984;2023-01-08T05:25:44;99284.20;;;4.98
69590;BMP180;56792;50.644;17.984;2023-01-08T05:28:16;99281.20;;;4.98
69590;BMP180;56792;50.644;17.984;2023-01-08T05:30:51;99275.20;;;5.00
69590;BMP180;56792;50.644;17.984;2023-01-08T05:33:24;99280.80;;;5.00
69590;BMP180;56792;50.644;17.984;2023-01-08T05:35:56;99276.60;;;5.00
69590;BMP180;56792;50.644;17.984;2023-01-08T05:38:28;99287.20;;;5.00
69590;BMP180;56792;50.644;17.984;2023-01-08T05:41:01;99290.00;;;5.00
69590;BMP180;56792;50.644;17.984;2023-01-08T05:43:34;99291.80;;;5.00
69590;BMP180;56792;50.644;17.984;2023-01-08T05:46:07;99292.00;;;5.00
69590;BMP180;56792;50.644;17.984;2023-01-08T05:48:39;99292.00;;;5.00
69590;BMP180;56792;50.644;17.984;2023-01-08T05:51:11;99297.00;;;5.00
69590;BMP180;56792;50.644;17.984;2023-01-08T05:53:43;99293.20;;;5.00
69590;BMP180;56792;50.644;17.984;2023-01-08T05:56:16;99293.80;;;5.02
69590;BMP180;56792;50.644;17.984;2023-01-08T05:58:48;99289.40;;;5.02
69590;BMP180;56792;50.644;17.984;2023-01-08T06:01:21;99282.60;;;5.02
69590;BMP180;56792;50.644;17.984;2023-01-08T06:03:55;99277.60;;;5.00
69590;BMP180;56792;50.644;17.984;2023-01-08T06:06:28;99273.40;;;5.02
69590;BMP180;56792;50.644;17.984;2023-01-08T06:09:00;99269.80;;;5.00
69590;BMP180;56792;50.644;17.984;2023-01-08T06:11:32;99268.60;;;5.00
69590;BMP180;56792;50.644;17.984;2023-01-08T06:14:04;99258.80;;;5.00
69590;BMP180;56792;50.644;17.984;2023-01-08T06:16:36;99261.40;;;5.00
69590;BMP180;56792;50.644;17.984;2023-01-08T06:19:10;99259.80;;;5.00
69590;BMP180;56792;50.644;17.984;2023-01-08T06:21:43;99259.60;;;5.00
69590;BMP180;56792;50.644;17.984;2023-01-08T06:24:15;99262.60;;;5.00
69590;BMP180;56792;50.644;17.984;2023-01-08T06:26:47;99256.00;;;5.08
69590;BMP180;56792;50.644;17.984;2023-01-08T06:29:20;99254.20;;;5.02
69590;BMP180;56792;50.644;17.984;2023-01-08T06:31:52;99256.20;;;5.00
69590;BMP180;56792;50.644;17.984;2023-01-08T06:34:24;99258.60;;;5.04
69590;BMP180;56792;50.644;17.984;2023-01-08T06:36:56;99261.60;;;5.10
69590;BMP180;56792;50.644;17.984;2023-01-08T06:39:28;99260.40;;;5.10
69590;BMP180;56792;50.644;17.984;2023-01-08T06:42:00;99259.40;;;5.10
69590;BMP180;56792;50.644;17.984;2023-01-08T06:44:32;99257.20;;;5.10
69590;BMP180;56792;50.644;17.984;2023-01-08T06:47:04;99257.40;;;5.10
69590;BMP180;56792;50.644;17.984;2023-01-08T06:49:36;99254.80;;;5.10
69590;BMP180;56792;50.644;17.984;2023-01-08T06:52:09;99249.00;;;5.10
69590;BMP180;56792;50.644;17.984;2023-01-08T06:54:41;99242.00;;;5.10
69590;BMP180;56792;50.644;17.984;2023-01-08T06:57:13;99236.20;;;5.10
69590;BMP180;56792;50.644;17.984;2023-01-08T06:59:45;99236.00;;;5.18
69590;BMP180;56792;50.644;17.984;2023-01-08T07:02:19;99229.40;;;5.20
69590;BMP180;56792;50.644;17.984;2023-01-08T07:04:51;99231.80;;;5.20
69590;BMP180;56792;50.644;17.984;2023-01-08T07:07:23;99232.40;;;5.20
69590;BMP180;56792;50.644;17.984;2023-01-08T07:09:55;99237.60;;;5.20
69590;BMP180;56792;50.644;17.984;2023-01-08T07:12:27;99241.60;;;5.22
69590;BMP180;56792;50.644;17.984;2023-01-08T07:15:00;99248.20;;;5.30
69590;BMP180;56792;50.644;17.984;2023-01-08T07:17:34;99249.40;;;5.30
69590;BMP180;56792;50.644;17.984;2023-01-08T07:20:08;99246.40;;;5.30
69590;BMP180;56792;50.644;17.984;2023-01-08T07:22:41;99240.20;;;5.40
69590;BMP180;56792;50.644;17.984;2023-01-08T07:25:13;99234.20;;;5.40
69590;BMP180;56792;50.644;17.984;2023-01-08T07:27:47;99223.20;;;5.50
69590;BMP180;56792;50.644;17.984;2023-01-08T07:30:19;99223.20;;;5.56
69590;BMP180;56792;50.644;17.984;2023-01-08T07:32:52;99223.40;;;5.60
69590;BMP180;56792;50.644;17.984;2023-01-08T07:35:24;99216.60;;;5.60
69590;BMP180;56792;50.644;17.984;2023-01-08T07:37:56;99210.80;;;5.70
69590;BMP180;56792;50.644;17.984;2023-01-08T07:40:29;99206.80;;;5.70
69590;BMP180;56792;50.644;17.984;2023-01-08T07:43:02;99206.80;;;5.72
69590;BMP180;56792;50.644;17.984;2023-01-08T07:45:36;99208.20;;;5.80
69590;BMP180;56792;50.644;17.984;2023-01-08T07:48:09;99214.20;;;5.80
69590;BMP180;56792;50.644;17.984;2023-01-08T07:50:45;99220.60;;;5.80
69590;BMP180;56792;50.644;17.984;2023-01-08T07:53:17;99217.60;;;5.90
69590;BMP180;56792;50.644;17.984;2023-01-08T07:55:49;99214.40;;;5.90
69590;BMP180;56792;50.644;17.984;2023-01-08T07:58:22;99214.00;;;5.90
69590;BMP180;56792;50.644;17.984;2023-01-08T08:00:54;99210.60;;;6.00
69590;BMP180;56792;50.644;17.984;2023-01-08T08:03:27;99207.00;;;6.00
69590;BMP180;56792;50.644;17.984;2023-01-08T08:06:00;99206.40;;;6.10
69590;BMP180;56792;50.644;17.984;2023-01-08T08:08:32;99212.40;;;6.10
69590;BMP180;56792;50.644;17.984;2023-01-08T08:11:04;99209.00;;;6.20
69590;BMP180;56792;50.644;17.984;2023-01-08T08:13:37;99205.40;;;6.20
69590;BMP180;56792;50.644;17.984;2023-01-08T08:16:12;99205.00;;;6.26
69590;BMP180;56792;50.644;17.984;2023-01-08T08:18:44;99202.60;;;6.30
69590;BMP180;56792;50.644;17.984;2023-01-08T08:21:17;99194.20;;;6.30
69590;BMP180;56792;50.644;17.984;2023-01-08T08:23:49;99183.20;;;6.30
69590;BMP180;56792;50.644;17.984;2023-01-08T08:26:21;99179.00;;;6.30
69590;BMP180;56792;50.644;17.984;2023-01-08T08:28:54;99181.60;;;6.30
69590;BMP180;56792;50.644;17.984;2023-01-08T08:31:26;99189.40;;;6.30
69590;BMP180;56792;50.644;17.984;2023-01-08T08:33:59;99184.40;;;6.30
69590;BMP180;56792;50.644;17.984;2023-01-08T08:36:34;99182.80;;;6.30
69590;BMP180;56792;50.644;17.984;2023-01-08T08:39:07;99179.00;;;6.30
69590;BMP180;56792;50.644;17.984;2023-01-08T08:41:39;99176.80;;;6.26
69590;BMP180;56792;50.644;17.984;2023-01-08T08:44:12;99172.00;;;6.30
69590;BMP180;56792;50.644;17.984;2023-01-08T08:46:45;99171.40;;;6.30
69590;BMP180;56792;50.644;17.984;2023-01-08T08:49:17;99167.60;;;6.30
69590;BMP180;56792;50.644;17.984;2023-01-08T08:51:50;99155.60;;;6.30
69590;BMP180;56792;50.644;17.984;2023-01-08T08:54:23;99147.40;;;6.40
69590;BMP180;56792;50.644;17.984;2023-01-08T08:56:55;99148.40;;;6.40
69590;BMP180;56792;50.644;17.984;2023-01-08T08:59:27;99153.40;;;6.42
69590;BMP180;56792;50.644;17.984;2023-01-08T09:02:00;99160.20;;;6.50
69590;BMP180;56792;50.644;17.984;2023-01-08T09:04:34;99165.20;;;6.52
69590;BMP180;56792;50.644;17.984;2023-01-08T09:07:06;99161.40;;;6.60
69590;BMP180;56792;50.644;17.984;2023-01-08T09:09:38;99154.00;;;6.66
69590;BMP180;56792;50.644;17.984;2023-01-08T09:12:11;99158.20;;;6.80
69590;BMP180;56792;50.644;17.984;2023-01-08T09:14:43;99155.80;;;6.90
69590;BMP180;56792;50.644;17.984;2023-01-08T09:17:16;99153.60;;;7.00
69590;BMP180;56792;50.644;17.984;2023-01-08T09:19:48;99161.20;;;7.10
69590;BMP180;56792;50.644;17.984;2023-01-08T09:22:27;99152.40;;;7.20
69590;BMP180;56792;50.644;17.984;2023-01-08T09:24:59;99153.60;;;7.22
69590;BMP180;56792;50.644;17.984;2023-01-08T09:27:31;99146.20;;;7.20
69590;BMP180;56792;50.644;17.984;2023-01-08T09:30:05;99144.60;;;7.20
69590;BMP180;56792;50.644;17.984;2023-01-08T09:32:37;99149.20;;;7.20
69590;BMP180;56792;50.644;17.984;2023-01-08T09:35:10;99144.60;;;7.20
69590;BMP180;56792;50.644;17.984;2023-01-08T09:37:43;99140.80;;;7.16
69590;BMP180;56792;50.644;17.984;2023-01-08T09:40:17;99133.40;;;7.12
69590;BMP180;56792;50.644;17.984;2023-01-08T09:42:55;99131.00;;;7.10
69590;BMP180;56792;50.644;17.984;2023-01-08T09:45:32;99130.60;;;7.20
69590;BMP180;56792;50.644;17.984;2023-01-08T09:48:13;99120.80;;;7.18
69590;BMP180;56792;50.644;17.984;2023-01-08T09:50:47;99115.40;;;7.10
69590;BMP180;56792;50.644;17.984;2023-01-08T09:53:21;99112.80;;;7.20
69590;BMP180;56792;50.644;17.984;2023-01-08T09:56:00;99120.40;;;7.20
69590;BMP180;56792;50.644;17.984;2023-01-08T09:58:38;99121.20;;;7.20
69590;BMP180;56792;50.644;17.984;2023-01-08T10:01:16;99124.40;;;7.38
69590;BMP180;56792;50.644;17.984;2023-01-08T10:03:54;99127.00;;;7.50
69590;BMP180;56792;50.644;17.984;2023-01-08T10:06:28;99125.20;;;7.60
69590;BMP180;56792;50.644;17.984;2023-01-08T10:09:02;99117.20;;;7.80
69590;BMP180;56792;50.644;17.984;2023-01-08T10:11:42;99114.20;;;8.10
69590;BMP180;56792;50.644;17.984;2023-01-08T10:14:24;99105.60;;;8.34
69590;BMP180;56792;50.644;17.984;2023-01-08T10:17:00;99103.20;;;8.80
69590;BMP180;56792;50.644;17.984;2023-01-08T10:19:34;99100.80;;;8.70
69590;BMP180;56792;50.644;17.984;2023-01-08T10:22:16;99101.80;;;8.66
69590;BMP180;56792;50.644;17.984;2023-01-08T10:24:49;99098.00;;;8.68
69590;BMP180;56792;50.644;17.984;2023-01-08T10:27:24;99099.80;;;8.60
69590;BMP180;56792;50.644;17.984;2023-01-08T10:30:13;99088.40;;;8.70
69590;BMP180;56792;50.644;17.984;2023-01-08T10:32:52;99095.40;;;8.80
69590;BMP180;56792;50.644;17.984;2023-01-08T10:35:36;99093.40;;;9.00
69590;BMP180;56792;50.644;17.984;2023-01-08T10:38:24;99086.20;;;9.10
69590;BMP180;56792;50.644;17.984;2023-01-08T10:40:58;99096.60;;;9.24
69590;BMP180;56792;50.644;17.984;2023-01-08T10:43:35;99093.20;;;9.40
69590;BMP180;56792;50.644;17.984;2023-01-08T10:46:26;99088.20;;;9.50
69590;BMP180;56792;50.644;17.984;2023-01-08T10:49:02;99078.60;;;9.60
69590;BMP180;56792;50.644;17.984;2023-01-08T10:51:36;99075.80;;;9.60
69590;BMP180;56792;50.644;17.984;2023-01-08T10:54:32;99067.00;;;9.60
69590;BMP180;56792;50.644;17.984;2023-01-08T10:57:20;99069.20;;;9.80
69590;BMP180;56792;50.644;17.984;2023-01-08T10:59:54;99071.40;;;9.80
69590;BMP180;56792;50.644;17.984;2023-01-08T11:02:35;99064.80;;;9.70
69590;BMP180;56792;50.644;17.984;2023-01-08T11:05:09;99062.20;;;9.60
69590;BMP180;56792;50.644;17.984;2023-01-08T11:07:42;99062.60;;;9.60
69590;BMP180;56792;50.644;17.984;2023-01-08T11:10:29;99063.00;;;9.70
69590;BMP180;56792;50.644;17.984;2023-01-08T11:13:04;99064.80;;;9.60
69590;BMP180;56792;50.644;17.984;2023-01-08T11:15:40;99062.80;;;9.60
69590;BMP180;56792;50.644;17.984;2023-01-08T11:18:23;99062.80;;;9.70
69590;BMP180;56792;50.644;17.984;2023-01-08T11:21:15;99059.60;;;9.70
69590;BMP180;56792;50.644;17.984;2023-01-08T11:24:02;99064.00;;;9.60
69590;BMP180;56792;50.644;17.984;2023-01-08T11:26:39;99059.80;;;9.66
69590;BMP180;56792;50.644;17.984;2023-01-08T11:29:16;99056.40;;;9.80
69590;BMP180;56792;50.644;17.984;2023-01-08T11:31:56;99055.40;;;10.10
69590;BMP180;56792;50.644;17.984;2023-01-08T11:35:03;99055.60;;;10.38
69590;BMP180;56792;50.644;17.984;2023-01-08T11:37:56;99051.40;;;10.82
69590;BMP180;56792;50.644;17.984;2023-01-08T11:40:41;99049.40;;;11.64
69590;BMP180;56792;50.644;17.984;2023-01-08T11:43:39;99048.20;;;12.54
69590;BMP180;56792;50.644;17.984;2023-01-08T11:46:34;99055.20;;;13.22
69590;BMP180;56792;50.644;17.984;2023-01-08T11:49:45;99053.80;;;13.50
69590;BMP180;56792;50.644;17.984;2023-01-08T11:52:43;99055.20;;;13.60
69590;BMP180;56792;50.644;17.984;2023-01-08T11:55:31;99051.80;;;13.62
69590;BMP180;56792;50.644;17.984;2023-01-08T11:58:26;99051.00;;;14.20
69590;BMP180;56792;50.644;17.984;2023-01-08T12:01:22;99047.60;;;14.62
69590;BMP180;56792;50.644;17.984;2023-01-08T12:04:18;99045.20;;;15.00
69590;BMP180;56792;50.644;17.984;2023-01-08T12:07:00;99045.20;;;15.24
69590;BMP180;56792;50.644;17.984;2023-01-08T12:09:43;99036.40;;;15.40
69590;BMP180;56792;50.644;17.984;2023-01-08T12:12:37;99032.00;;;15.80
69590;BMP180;56792;50.644;17.984;2023-01-08T12:15:21;99032.00;;;16.00
69590;BMP180;56792;50.644;17.984;2023-01-08T12:18:37;99036.20;;;16.40
69590;BMP180;56792;50.644;17.984;2023-01-08T12:21:19;99028.80;;;16.70
69590;BMP180;56792;50.644;17.984;2023-01-08T12:24:26;99025.80;;;16.60
69590;BMP180;56792;50.644;17.984;2023-01-08T12:27:12;99020.80;;;16.50
69590;BMP180;56792;50.644;17.984;2023-01-08T12:30:06;99021.20;;;16.72
69590;BMP180;56792;50.644;17.984;2023-01-08T12:32:57;99028.60;;;16.56
69590;BMP180;56792;50.644;17.984;2023-01-08T12:35:39;99034.20;;;16.60
69590;BMP180;56792;50.644;17.984;2023-01-08T12:38:20;99032.40;;;16.40
69590;BMP180;56792;50.644;17.984;2023-01-08T12:41:00;99026.60;;;15.90
69590;BMP180;56792;50.644;17.984;2023-01-08T12:43:50;99027.80;;;15.54
69590;BMP180;56792;50.644;17.984;2023-01-08T12:46:27;99023.20;;;15.30
69590;BMP180;56792;50.644;17.984;2023-01-08T12:49:03;99025.40;;;15.90
69590;BMP180;56792;50.644;17.984;2023-01-08T12:51:40;99025.80;;;16.38
69590;BMP180;56792;50.644;17.984;2023-01-08T12:54:28;99022.20;;;16.58
69590;BMP180;56792;50.644;17.984;2023-01-08T12:57:13;99024.00;;;16.34
69590;BMP180;56792;50.644;17.984;2023-01-08T13:00:11;99038.80;;;15.54
69590;BMP180;56792;50.644;17.984;2023-01-08T13:02:57;99035.20;;;14.62
69590;BMP180;56792;50.644;17.984;2023-01-08T13:05:37;99030.00;;;13.74
69590;BMP180;56792;50.644;17.984;2023-01-08T13:08:30;99028.00;;;12.96
69590;BMP180;56792;50.644;17.984;2023-01-08T13:11:04;99016.20;;;12.50
69590;BMP180;56792;50.644;17.984;2023-01-08T13:13:40;99015.40;;;12.28
69590;BMP180;56792;50.644;17.984;2023-01-08T13:16:33;99023.00;;;11.84
69590;BMP180;56792;50.644;17.984;2023-01-08T13:19:24;99025.00;;;11.40
69590;BMP180;56792;50.644;17.984;2023-01-08T13:21:59;99026.80;;;10.88
69590;BMP180;56792;50.644;17.984;2023-01-08T13:24:35;99022.80;;;10.70
69590;BMP180;56792;50.644;17.984;2023-01-08T13:27:30;99026.20;;;10.56
69590;BMP180;56792;50.644;17.984;2023-01-08T13:32:50;99016.40;;;10.00
69590;BMP180;56792;50.644;17.984;2023-01-08T13:35:28;99004.80;;;9.84
69590;BMP180;56792;50.644;17.984;2023-01-08T13:38:19;99009.20;;;9.68
69590;BMP180;56792;50.644;17.984;2023-01-08T13:40:57;99006.60;;;9.38
69590;BMP180;56792;50.644;17.984;2023-01-08T13:43:40;99012.00;;;9.20
69590;BMP180;56792;50.644;17.984;2023-01-08T13:46:20;99022.80;;;9.02
69590;BMP180;56792;50.644;17.984;2023-01-08T13:48:59;99025.80;;;8.80
69590;BMP180;56792;50.644;17.984;2023-01-08T13:51:43;99027.60;;;8.60
69590;BMP180;56792;50.644;17.984;2023-01-08T13:54:32;99020.80;;;8.50
69590;BMP180;56792;50.644;17.984;2023-01-08T13:57:13;99017.00;;;8.30
69590;BMP180;56792;50.644;17.984;2023-01-08T13:59:54;99009.20;;;8.20
69590;BMP180;56792;50.644;17.984;2023-01-08T14:02:32;98994.60;;;8.10
69590;BMP180;56792;50.644;17.984;2023-01-08T14:05:20;98986.80;;;8.00
69590;BMP180;56792;50.644;17.984;2023-01-08T14:07:53;98985.60;;;7.90
69590;BMP180;56792;50.644;17.984;2023-01-08T14:10:28;98983.00;;;7.90
69590;BMP180;56792;50.644;17.984;2023-01-08T14:13:10;98987.00;;;7.90
69590;BMP180;56792;50.644;17.984;2023-01-08T14:15:44;98985.40;;;7.80
69590;BMP180;56792;50.644;17.984;2023-01-08T14:18:19;98977.20;;;7.74
69590;BMP180;56792;50.644;17.984;2023-01-08T14:20:53;98975.60;;;7.60
69590;BMP180;56792;50.644;17.984;2023-01-08T14:23:32;98972.40;;;7.50
69590;BMP180;56792;50.644;17.984;2023-01-08T14:26:26;98970.60;;;7.40
69590;BMP180;56792;50.644;17.984;2023-01-08T14:29:02;98973.60;;;7.30
69590;BMP180;56792;50.644;17.984;2023-01-08T14:31:43;98976.20;;;7.20
69590;BMP180;56792;50.644;17.984;2023-01-08T14:34:22;98970.20;;;7.20
69590;BMP180;56792;50.644;17.984;2023-01-08T14:36:57;98969.80;;;7.10
69590;BMP180;56792;50.644;17.984;2023-01-08T14:39:37;98963.60;;;7.00
69590;BMP180;56792;50.644;17.984;2023-01-08T14:42:15;98962.20;;;7.00
69590;BMP180;56792;50.644;17.984;2023-01-08T14:45:11;98966.60;;;6.86
69590;BMP180;56792;50.644;17.984;2023-01-08T14:47:51;98967.60;;;6.76
69590;BMP180;56792;50.644;17.984;2023-01-08T14:50:30;98962.60;;;6.70
69590;BMP180;56792;50.644;17.984;2023-01-08T14:53:09;98959.00;;;6.60
69590;BMP180;56792;50.644;17.984;2023-01-08T14:55:50;98963.80;;;6.54
69590;BMP180;56792;50.644;17.984;2023-01-08T14:58:39;98963.60;;;6.50
69590;BMP180;56792;50.644;17.984;2023-01-08T15:01:20;98969.60;;;6.46
69590;BMP180;56792;50.644;17.984;2023-01-08T15:04:05;98964.60;;;6.40